Time;durP1;ratioP1;P1;durP2;ratioP2;P2;SDS_P1;SDS_P2;PMS_P1;PMS_P2;Temp;Humidity;BMP_temperature;BMP_pressure;BME280_temperature;BME280_humidity;BME280_pressure;Samples;Min_cycle;Max_cycle;Signal;HPM_P1;HPM_P2
2022/09/14 00:01:17;;;;;;;11.97;9.20;;;;;;;26.31;50.18;98825.34;4140635;28;20240;-64
2022/09/14 00:03:26;;;;;;;12.80;10.43;;;;;;;25.68;50.74;98854.13;4147347;28;20290;-64
2022/09/14 00:05:28;;;;;;;12.47;9.97;;;;;;;26.19;50.23;98844.00;4141695;28;20291;-63
2022/09/14 00:07:29;;;;;;;12.40;9.37;;;;;;;26.13;50.14;98857.66;4142903;28;20332;-64
2022/09/14 00:09:31;;;;;;;12.67;9.87;;;;;;;26.38;49.60;98846.81;4142888;28;20237;-63
2022/09/14 00:11:35;;;;;;;11.03;8.77;;;;;;;25.09;52.04;98863.88;4153330;28;20637;-64
2022/09/14 00:13:38;;;;;;;11.60;9.27;;;;;;;26.22;49.82;98837.94;4150301;28;20310;-63
2022/09/14 00:15:43;;;;;;;12.67;10.00;;;;;;;25.59;50.78;98866.66;4150311;28;20587;-64
2022/09/14 00:17:45;;;;;;;14.13;9.43;;;;;;;25.67;50.44;98859.84;4151967;28;20240;-63
2022/09/14 00:19:47;;;;;;;12.43;9.50;;;;;;;25.14;51.93;98852.97;4141748;28;20224;-64
2022/09/14 00:21:52;;;;;;;10.27;8.63;;;;;;;25.55;51.05;98862.91;4146981;28;20624;-65
2022/09/14 00:23:53;;;;;;;10.60;9.07;;;;;;;26.60;48.75;98838.19;4141072;28;20371;-63
2022/09/14 00:25:55;;;;;;;11.23;8.43;;;;;;;25.68;50.17;98883.22;4153505;28;20240;-63
2022/09/14 00:27:57;;;;;;;10.30;8.57;;;;;;;26.46;48.51;98863.38;4144916;28;20225;-63
2022/09/14 00:29:58;;;;;;;9.00;7.90;;;;;;;26.13;49.87;98859.53;4147528;28;20254;-63
2022/09/14 00:32:00;;;;;;;12.33;8.13;;;;;;;25.96;49.80;98862.66;4147203;28;20769;-63
2022/09/14 00:34:04;;;;;;;9.10;7.93;;;;;;;26.47;49.42;98847.81;4149479;28;20237;-62
2022/09/14 00:36:25;;;;;;;17.50;8.23;;;;;;;26.65;48.79;98844.41;4148647;28;20225;-62
2022/09/14 00:38:26;;;;;;;10.47;8.10;;;;;;;26.12;50.14;98856.03;4145903;28;20235;-64
2022/09/14 00:40:28;;;;;;;12.67;7.90;;;;;;;27.22;47.63;98825.50;4147845;28;20236;-62
2022/09/14 00:42:30;;;;;;;10.75;8.23;;;;;;;27.10;47.73;98836.03;4146668;28;20346;-63
2022/09/14 00:44:32;;;;;;;10.77;8.20;;;;;;;27.39;47.73;98832.41;4150663;28;20236;-63
2022/09/14 00:46:42;;;;;;;11.07;7.70;;;;;;;26.78;49.19;98844.84;4146452;28;20698;-63
2022/09/14 00:48:44;;;;;;;11.90;8.50;;;;;;;26.83;48.90;98858.41;4146778;28;20237;-63
2022/09/14 00:50:45;;;;;;;9.43;7.82;;;;;;;26.70;48.69;98874.34;4149240;28;20241;-64
2022/09/14 00:52:49;;;;;;;11.52;7.82;;;;;;;26.48;49.43;98879.44;4155447;28;21750;-63
2022/09/14 00:54:56;;;;;;;9.10;7.47;;;;;;;27.06;48.32;98863.09;4151822;28;20826;-64
2022/09/14 00:57:01;;;;;;;13.63;8.60;;;;;;;27.01;48.93;98881.38;4138388;28;20231;-63
2022/09/14 00:59:10;;;;;;;14.07;8.35;;;;;;;26.74;49.57;98903.75;4142978;28;20316;-63
2022/09/14 01:01:12;;;;;;;12.00;8.07;;;;;;;26.50;50.05;98913.53;4145262;28;20224;-63
2022/09/14 01:03:14;;;;;;;12.27;8.52;;;;;;;27.09;48.98;98888.97;4142639;28;20245;-62
2022/09/14 01:05:16;;;;;;;16.42;9.70;;;;;;;26.63;49.47;98892.94;4148221;28;20267;-62
2022/09/14 01:07:51;;;;;;;11.65;8.25;;;;;;;26.09;50.23;98913.78;4145207;28;20728;-63
2022/09/14 01:10:02;;;;;;;12.43;8.30;;;;;;;26.90;49.39;98913.44;4146029;28;20225;-63
2022/09/14 01:12:44;;;;;;;14.97;9.23;;;;;;;25.71;51.70;98948.00;4140032;28;20701;-63
2022/09/14 01:15:22;;;;;;;12.60;7.78;;;;;;;25.64;51.90;98902.03;4135887;28;20225;-63
2022/09/14 01:17:34;;;;;;;13.90;7.87;;;;;;;26.34;49.74;98937.31;4128429;28;20224;-63
2022/09/14 01:19:39;;;;;;;13.07;7.73;;;;;;;26.58;49.68;98950.25;4142136;28;20241;-63
2022/09/14 01:21:43;;;;;;;10.30;7.00;;;;;;;25.77;51.11;98972.22;4145778;28;20643;-62
2022/09/14 01:24:01;;;;;;;10.85;7.45;;;;;;;26.83;49.25;98942.97;4154595;28;20343;-63
2022/09/14 01:26:35;;;;;;;11.10;7.35;;;;;;;26.52;49.49;98952.22;4160909;28;20232;-63
2022/09/14 01:29:00;;;;;;;9.73;6.80;;;;;;;25.89;50.45;98960.19;4164168;28;20628;-63
2022/09/14 01:31:08;;;;;;;9.77;6.00;;;;;;;26.95;48.21;98928.94;4155200;28;20235;-63
2022/09/14 01:33:19;;;;;;;8.90;6.17;;;;;;;26.34;50.33;98947.41;4161335;28;20228;-63
2022/09/14 01:35:34;;;;;;;10.50;5.83;;;;;;;26.31;50.43;98916.09;4155014;28;20229;-63
2022/09/14 01:38:03;;;;;;;7.43;5.03;;;;;;;26.73;48.70;98897.50;4162854;28;20239;-64
2022/09/14 01:40:38;;;;;;;5.90;4.77;;;;;;;27.81;46.73;98880.72;4155950;28;20225;-63
2022/09/14 01:42:44;;;;;;;10.43;4.47;;;;;;;27.42;47.09;98916.44;4163591;28;20232;-63
2022/09/14 01:44:50;;;;;;;6.18;4.90;;;;;;;27.58;47.00;98923.34;4158811;28;20235;-64
2022/09/14 01:46:56;;;;;;;8.52;5.13;;;;;;;27.68;46.72;98925.13;4158989;28;20613;-63
2022/09/14 01:49:02;;;;;;;5.90;4.30;;;;;;;27.32;47.20;98924.75;4160350;28;20337;-64
2022/09/14 01:51:11;;;;;;;6.07;4.53;;;;;;;26.44;49.46;98933.72;4159156;28;20279;-64
2022/09/14 01:53:21;;;;;;;5.97;4.70;;;;;;;26.55;50.07;98900.94;4160065;28;20317;-62
2022/09/14 01:55:32;;;;;;;8.33;4.50;;;;;;;26.21;50.53;98916.16;4163258;28;20255;-63
2022/09/14 01:58:25;;;;;;;8.48;4.40;;;;;;;27.07;48.78;98874.81;4155694;28;20247;-62
2022/09/14 02:00:27;;;;;;;6.10;4.23;;;;;;;26.99;48.12;98889.06;4139274;28;20241;-63
2022/09/14 02:02:39;;;;;;;6.00;4.20;;;;;;;26.74;49.28;98898.31;4154904;28;20322;-62
2022/09/14 02:05:20;;;;;;;6.27;4.60;;;;;;;26.91;48.59;98915.06;4144386;28;20248;-63
2022/09/14 02:07:22;;;;;;;8.82;4.50;;;;;;;26.88;49.05;98916.44;4139226;28;20245;-62
2022/09/14 02:09:25;;;;;;;9.32;4.78;;;;;;;26.41;49.87;98911.66;4146065;28;20257;-63
2022/09/14 02:11:27;;;;;;;8.77;4.95;;;;;;;27.18;48.64;98857.22;4141667;28;20284;-63
2022/09/14 02:13:29;;;;;;;8.70;4.88;;;;;;;26.70;49.46;98859.91;4136183;28;20233;-63
2022/09/14 02:15:31;;;;;;;8.95;5.53;;;;;;;27.13;48.80;98845.53;4145168;28;20251;-63
2022/09/14 02:17:32;;;;;;;8.40;5.82;;;;;;;25.11;53.03;98839.94;4142170;28;20236;-62
2022/09/14 02:19:40;;;;;;;8.60;5.67;;;;;;;24.11;54.40;98847.63;4146554;28;20233;-63
2022/09/14 02:21:42;;;;;;;10.63;5.10;;;;;;;26.58;50.28;98792.13;4150931;28;20255;-62
2022/09/14 02:23:46;;;;;;;7.37;6.27;;;;;;;26.63;49.35;98832.19;4161991;28;20264;-62
2022/09/14 02:25:48;;;;;;;7.20;6.17;;;;;;;24.08;54.23;98858.22;4158469;28;20249;-63
2022/09/14 02:27:51;;;;;;;8.98;6.03;;;;;;;23.66;56.24;98811.22;4159524;28;20237;-62
2022/09/14 02:29:53;;;;;;;7.43;6.10;;;;;;;26.04;51.12;98772.19;4160497;28;20327;-62
2022/09/14 02:32:11;;;;;;;9.33;6.43;;;;;;;26.07;50.98;98796.13;4158106;28;20233;-63
2022/09/14 02:34:27;;;;;;;9.05;6.57;;;;;;;26.49;50.15;98780.22;4158922;28;20267;-63
2022/09/14 02:36:50;;;;;;;9.05;6.63;;;;;;;26.59;50.08;98806.56;4159414;28;20225;-62
2022/09/14 02:39:05;;;;;;;8.30;7.00;;;;;;;26.71;50.08;98809.72;4155058;28;20737;-63
2022/09/14 02:41:13;;;;;;;11.73;7.10;;;;;;;26.75;49.53;98824.41;4160595;28;20688;-62
2022/09/14 02:43:26;;;;;;;11.93;7.40;;;;;;;26.66;49.71;98828.88;4163426;28;20232;-62
2022/09/14 02:45:57;;;;;;;8.73;7.00;;;;;;;27.14;49.55;98817.97;4153695;28;20878;-61
2022/09/14 02:48:20;;;;;;;11.35;7.10;;;;;;;27.28;48.36;98814.53;4155333;28;20243;-64
2022/09/14 02:50:33;;;;;;;12.15;7.20;;;;;;;26.95;49.00;98819.84;4146644;28;20311;-63
2022/09/14 02:53:05;;;;;;;12.17;7.03;;;;;;;26.97;49.34;98814.88;4158897;28;20609;-62
2022/09/14 02:55:11;;;;;;;11.57;7.63;;;;;;;25.24;52.09;98833.09;4161131;28;20266;-63
2022/09/14 02:57:13;;;;;;;10.57;8.20;;;;;;;24.82;54.30;98782.66;4157410;28;21048;-62
2022/09/14 02:59:15;;;;;;;9.60;7.43;;;;;;;26.38;50.65;98754.16;4159043;28;20622;-63
2022/09/14 03:01:19;;;;;;;10.85;7.75;;;;;;;26.89;49.20;98745.41;4161843;28;20782;-63
2022/09/14 03:03:21;;;;;;;11.43;8.23;;;;;;;26.84;49.39;98754.50;4159774;28;20248;-63
2022/09/14 03:05:23;;;;;;;12.38;8.32;;;;;;;25.98;51.24;98765.16;4163144;28;20232;-62
2022/09/14 03:07:24;;;;;;;11.20;8.40;;;;;;;26.64;50.43;98730.19;4158796;28;20236;-62
2022/09/14 03:09:26;;;;;;;11.47;9.77;;;;;;;26.53;50.17;98730.31;4158984;28;20228;-63
2022/09/14 03:11:27;;;;;;;11.88;9.60;;;;;;;27.07;49.18;98722.84;4156580;28;20235;-63
2022/09/14 03:13:29;;;;;;;13.85;10.25;;;;;;;26.84;49.67;98740.88;4163648;28;20232;-63
2022/09/14 03:15:31;;;;;;;12.88;9.32;;;;;;;26.79;49.90;98749.09;4157370;28;20250;-63
2022/09/14 03:17:32;;;;;;;13.77;10.13;;;;;;;27.27;49.09;98729.13;4161818;28;20233;-63
2022/09/14 03:19:34;;;;;;;13.77;11.07;;;;;;;26.48;50.21;98765.75;4159131;28;20801;-62
2022/09/14 03:21:37;;;;;;;12.60;10.25;;;;;;;26.80;49.97;98750.72;4158830;28;20316;-63
2022/09/14 03:23:45;;;;;;;12.57;11.18;;;;;;;26.80;50.03;98756.16;4155872;28;20236;-63
2022/09/14 03:25:46;;;;;;;14.13;11.35;;;;;;;27.23;48.60;98761.66;4158876;28;20447;-63
2022/09/14 03:27:50;;;;;;;14.63;11.90;;;;;;;25.76;51.69;98800.97;4157389;28;20246;-62
2022/09/14 03:29:51;;;;;;;15.90;13.30;;;;;;;25.56;52.26;98797.28;4160056;28;20251;-63
2022/09/14 03:31:53;;;;;;;13.90;10.80;;;;;;;24.73;53.76;98817.72;4157236;28;20312;-62
2022/09/14 03:33:56;;;;;;;11.37;9.97;;;;;;;23.58;56.61;98803.59;4160849;28;20365;-62
2022/09/14 03:35:58;;;;;;;13.77;10.17;;;;;;;24.11;55.29;98793.31;4159358;28;20347;-63
2022/09/14 03:38:01;;;;;;;15.40;10.00;;;;;;;24.80;53.94;98772.06;4158342;28;20229;-63
2022/09/14 03:40:05;;;;;;;11.87;9.03;;;;;;;24.80;54.05;98766.63;4158521;28;20231;-62
2022/09/14 03:42:06;;;;;;;10.07;9.03;;;;;;;25.96;51.19;98751.00;4160727;28;20232;-62
2022/09/14 03:44:09;;;;;;;10.60;9.10;;;;;;;26.28;50.34;98765.97;4153732;28;20235;-63
2022/09/14 03:46:22;;;;;;;10.50;9.17;;;;;;;26.19;50.79;98795.75;4161595;28;20709;-63
2022/09/14 03:48:23;;;;;;;11.17;8.63;;;;;;;25.87;51.15;98802.53;4148930;28;20228;-62
2022/09/14 03:50:25;;;;;;;12.07;10.20;;;;;;;25.83;51.16;98787.03;4158929;28;20233;-63
2022/09/14 03:52:27;;;;;;;11.97;10.20;;;;;;;25.13;52.27;98801.56;4163828;28;20235;-63
2022/09/14 03:54:28;;;;;;;13.17;10.17;;;;;;;26.02;51.35;98770.88;4163147;28;20232;-61
2022/09/14 03:56:30;;;;;;;10.57;9.33;;;;;;;25.78;51.10;98790.63;4158104;28;20225;-63
2022/09/14 03:58:32;;;;;;;12.73;10.43;;;;;;;26.14;50.47;98788.44;4164923;28;20771;-63
2022/09/14 04:00:33;;;;;;;10.20;9.07;;;;;;;25.54;51.34;98806.81;4159909;28;21005;-62
2022/09/14 04:02:35;;;;;;;10.83;8.77;;;;;;;23.78;56.11;98788.44;4160409;28;20264;-63
2022/09/14 04:04:37;;;;;;;10.57;8.90;;;;;;;26.20;50.94;98747.53;4162506;28;20228;-63
2022/09/14 04:06:38;;;;;;;10.23;8.37;;;;;;;26.33;50.85;98771.38;4161944;28;20339;-63
2022/09/14 04:08:41;;;;;;;9.70;7.67;;;;;;;26.06;51.37;98778.16;4166611;28;20259;-63
2022/09/14 04:10:42;;;;;;;9.97;8.80;;;;;;;26.35;50.63;98771.91;4158466;28;20240;-62
2022/09/14 04:12:44;;;;;;;10.00;8.17;;;;;;;26.56;49.81;98766.28;4158485;28;20241;-63
2022/09/14 04:14:45;;;;;;;12.50;9.30;;;;;;;27.16;49.07;98753.03;4158112;28;20985;-62
2022/09/14 04:16:47;;;;;;;10.77;9.23;;;;;;;27.06;48.43;98773.06;4162425;28;20229;-62
2022/09/14 04:18:49;;;;;;;10.70;9.53;;;;;;;26.87;48.92;98788.53;4161528;28;20240;-63
2022/09/14 04:20:58;;;;;;;10.73;8.70;;;;;;;27.14;49.34;98779.78;4171724;28;20320;-63
2022/09/14 04:22:59;;;;;;;11.53;9.13;;;;;;;26.84;49.39;98789.94;4157601;28;20718;-62
2022/09/14 04:25:01;;;;;;;11.57;8.27;;;;;;;26.97;49.03;98782.16;4159514;28;20601;-63
2022/09/14 04:27:03;;;;;;;10.20;8.50;;;;;;;27.11;48.88;98774.91;4165535;28;20319;-64
2022/09/14 04:29:04;;;;;;;9.67;8.27;;;;;;;26.75;49.26;98793.59;4159154;28;20232;-64
2022/09/14 04:31:08;;;;;;;10.30;9.03;;;;;;;26.96;48.70;98780.53;4162863;28;20332;-62
2022/09/14 04:33:10;;;;;;;11.60;8.23;;;;;;;27.11;48.46;98776.81;4158641;28;20244;-62
2022/09/14 04:35:11;;;;;;;12.73;8.07;;;;;;;27.34;48.05;98777.88;4163717;28;20227;-63
2022/09/14 04:37:13;;;;;;;8.87;7.97;;;;;;;27.15;48.38;98786.88;4161874;28;20331;-63
2022/09/14 04:39:15;;;;;;;11.43;7.87;;;;;;;27.37;47.99;98783.56;4163632;28;20326;-63
2022/09/14 04:41:19;;;;;;;10.87;8.10;;;;;;;27.26;48.41;98782.91;4162516;28;20319;-63
2022/09/14 04:43:21;;;;;;;9.33;8.30;;;;;;;27.50;48.15;98789.38;4164073;28;20244;-62
2022/09/14 04:45:23;;;;;;;9.40;7.77;;;;;;;27.13;48.56;98793.72;4161703;28;20237;-63
2022/09/14 04:47:24;;;;;;;8.97;7.73;;;;;;;26.58;49.74;98799.50;4159936;28;20721;-62
2022/09/14 04:49:26;;;;;;;10.60;8.37;;;;;;;26.79;49.28;98803.66;4161715;28;20223;-63
2022/09/14 04:51:29;;;;;;;9.53;8.57;;;;;;;27.01;49.08;98800.38;4160467;28;20225;-62
2022/09/14 04:53:36;;;;;;;10.90;8.60;;;;;;;27.40;48.39;98801.28;4160828;28;20234;-62
2022/09/14 04:55:38;;;;;;;9.77;8.27;;;;;;;27.21;48.74;98821.19;4163549;28;20316;-63
2022/09/14 04:57:39;;;;;;;11.23;7.70;;;;;;;27.03;48.61;98813.75;4162830;28;20240;-63
2022/09/14 04:59:41;;;;;;;7.90;6.77;;;;;;;26.72;49.56;98808.63;4162596;28;20266;-63
2022/09/14 05:01:46;;;;;;;8.50;7.37;;;;;;;27.05;48.63;98811.53;4161917;28;20270;-62
2022/09/14 05:03:49;;;;;;;8.80;7.20;;;;;;;26.77;49.28;98802.31;4163894;28;20236;-62
2022/09/14 05:05:51;;;;;;;9.03;6.93;;;;;;;26.99;48.83;98809.94;4158259;28;20242;-63
2022/09/14 05:07:52;;;;;;;8.17;6.43;;;;;;;26.54;49.80;98823.81;4160388;28;20229;-63
2022/09/14 05:09:54;;;;;;;9.13;6.33;;;;;;;26.09;50.30;98825.81;4161067;28;20615;-63
2022/09/14 05:11:55;;;;;;;7.50;6.57;;;;;;;25.76;51.57;98809.13;4168791;28;20229;-63
2022/09/14 05:13:59;;;;;;;7.43;6.50;;;;;;;26.79;49.70;98784.56;4159437;28;20233;-63
2022/09/14 05:16:09;;;;;;;8.00;7.03;;;;;;;27.09;48.93;98785.31;4163672;28;20729;-63
2022/09/14 05:18:11;;;;;;;7.55;6.45;;;;;;;26.30;50.24;98801.91;4162123;28;20227;-62
2022/09/14 05:20:13;;;;;;;9.93;7.37;;;;;;;26.61;49.37;98804.38;4156711;28;20219;-63
2022/09/14 05:22:14;;;;;;;9.17;7.97;;;;;;;26.55;49.90;98802.81;4162269;28;20739;-62
2022/09/14 05:24:17;;;;;;;9.77;8.10;;;;;;;26.52;49.92;98791.38;4162108;22;20233;-31
2022/09/14 05:26:19;;;;;;;10.27;9.03;;;;;;;26.43;50.57;98779.44;4150058;28;20269;-32
2022/09/14 05:28:20;;;;;;;10.73;9.40;;;;;;;26.31;50.35;98781.75;4141683;28;20606;-32
2022/09/14 05:30:22;;;;;;;10.07;8.70;;;;;;;26.00;50.61;98786.66;4141892;28;20278;-32
2022/09/14 05:32:24;;;;;;;8.90;7.47;;;;;;;25.66;51.69;98776.53;4143409;28;20252;-31
2022/09/14 05:34:25;;;;;;;8.63;7.40;;;;;;;26.27;50.42;98754.28;4141846;28;20261;-31
2022/09/14 05:36:27;;;;;;;10.40;7.67;;;;;;;26.30;50.52;98764.59;4145147;28;20264;-34
2022/09/14 05:38:30;;;;;;;7.93;6.33;;;;;;;25.01;52.75;98799.97;4145456;28;20268;-38
2022/09/14 05:40:32;;;;;;;10.73;7.67;;;;;;;25.49;51.86;98775.03;4141662;28;20393;-32
2022/09/14 05:42:34;;;;;;;11.13;8.93;;;;;;;26.01;51.40;98756.41;4142410;28;20237;-31
2022/09/14 05:44:35;;;;;;;11.60;8.80;;;;;;;26.33;50.46;98741.41;4141484;28;20325;-35
2022/09/14 05:46:37;;;;;;;12.93;10.07;;;;;;;26.27;51.04;98740.66;4141472;28;20265;-35
2022/09/14 05:48:39;;;;;;;12.53;10.50;;;;;;;26.22;50.56;98757.06;4141088;28;20242;-31
2022/09/14 05:50:42;;;;;;;12.63;10.80;;;;;;;26.23;50.60;98752.41;4142352;28;20546;-32
2022/09/14 05:52:43;;;;;;;12.97;10.70;;;;;;;26.27;50.58;98754.28;4142067;28;20979;-31
2022/09/14 05:54:45;;;;;;;15.27;12.20;;;;;;;25.36;51.99;98778.38;4139162;28;20260;-31
2022/09/14 05:56:47;;;;;;;15.63;12.37;;;;;;;26.18;51.60;98741.56;4142853;28;20327;-30
2022/09/14 05:58:49;;;;;;;18.37;12.13;;;;;;;26.18;51.13;98750.53;4142139;28;20257;-31
2022/09/14 06:00:51;;;;;;;15.50;12.10;;;;;;;24.66;54.33;98777.22;4139435;28;20689;-30
2022/09/14 06:02:53;;;;;;;13.63;12.23;;;;;;;25.81;52.05;98749.19;4143791;28;20320;-30
2022/09/14 06:04:55;;;;;;;15.67;12.67;;;;;;;26.44;50.28;98742.13;4141851;28;20312;-31
2022/09/14 06:06:56;;;;;;;15.10;13.30;;;;;;;26.50;50.54;98735.50;4140550;28;20243;-30
2022/09/14 06:09:18;;;;;;;15.17;13.57;;;;;;;26.85;49.92;98744.41;4140778;28;20764;-31
2022/09/14 06:11:23;;;;;;;19.63;14.60;;;;;;;26.21;51.09;98781.84;4139397;28;20248;-31
2022/09/14 06:13:25;;;;;;;17.77;13.43;;;;;;;25.21;53.17;98790.91;4141892;28;20252;-30
2022/09/14 06:15:26;;;;;;;18.17;14.57;;;;;;;25.60;52.06;98790.19;4141194;28;20320;-35
2022/09/14 06:17:30;;;;;;;19.57;13.57;;;;;;;25.21;53.69;98768.34;4138109;28;20321;-33
2022/09/14 06:19:31;;;;;;;18.37;14.90;;;;;;;25.72;52.21;98765.31;4140617;28;20268;-31
2022/09/14 06:21:33;;;;;;;18.70;15.43;;;;;;;25.71;53.02;98755.56;4144698;28;20264;-33
2022/09/14 06:23:35;;;;;;;16.63;14.67;;;;;;;25.71;52.61;98766.44;4144919;28;20228;-32
2022/09/14 06:25:37;;;;;;;19.50;15.63;;;;;;;26.33;51.59;98746.84;4143040;28;20276;-31
2022/09/14 06:27:38;;;;;;;21.43;14.93;;;;;;;26.44;51.04;98733.94;4141573;28;20744;-33
2022/09/14 06:29:40;;;;;;;19.03;15.13;;;;;;;25.72;53.02;98759.88;4142000;28;20621;-32
2022/09/14 06:31:42;;;;;;;16.13;14.13;;;;;;;26.60;50.57;98732.69;4140985;28;20257;-31
2022/09/14 06:33:45;;;;;;;16.67;13.43;;;;;;;26.12;51.89;98763.41;4140045;28;20287;-31
2022/09/14 06:35:58;;;;;;;16.70;13.93;;;;;;;27.03;49.99;98734.63;4140349;28;20248;-31
2022/09/14 06:38:00;;;;;;;20.97;15.30;;;;;;;26.33;51.94;98760.47;4138230;28;20221;-34
2022/09/14 06:40:03;;;;;;;18.90;15.03;;;;;;;26.42;50.99;98750.59;4142118;28;20547;-29
2022/09/14 06:42:04;;;;;;;20.20;14.80;;;;;;;26.64;50.75;98739.19;4140332;28;20239;-30
2022/09/14 06:44:06;;;;;;;18.47;15.73;;;;;;;26.95;50.45;98730.63;4141101;28;20686;-33
2022/09/14 06:46:18;;;;;;;19.33;15.43;;;;;;;26.51;50.94;98750.78;4141355;28;20258;-33
2022/09/14 06:48:20;;;;;;;15.57;13.80;;;;;;;26.45;51.32;98760.88;4139069;28;20321;-33
2022/09/14 06:50:21;;;;;;;17.43;14.80;;;;;;;25.93;51.89;98770.59;4155758;28;20320;-31
2022/09/14 06:52:23;;;;;;;17.83;14.80;;;;;;;26.33;51.08;98750.38;4139082;28;20256;-33
2022/09/14 06:54:25;;;;;;;18.60;15.50;;;;;;;25.92;52.58;98758.91;4138959;28;20336;-33
2022/09/14 06:56:30;;;;;;;19.00;13.97;;;;;;;26.82;50.85;98723.97;4139991;28;20503;-31
2022/09/14 06:58:33;;;;;;;16.90;14.50;;;;;;;25.94;53.06;98732.22;4139799;28;20602;-34
2022/09/14 07:00:35;;;;;;;18.13;14.77;;;;;;;26.45;51.78;98736.34;4141209;28;20598;-32
2022/09/14 07:02:36;;;;;;;18.13;14.70;;;;;;;26.38;51.78;98735.09;4142332;28;20753;-33
2022/09/14 07:04:38;;;;;;;18.33;14.00;;;;;;;26.43;52.03;98735.03;4141114;28;20243;-33
2022/09/14 07:06:43;;;;;;;17.00;14.32;;;;;;;26.82;51.11;98726.69;4142867;28;20237;-35
2022/09/14 07:08:44;;;;;;;17.30;14.73;;;;;;;25.67;53.85;98759.91;4140005;28;20343;-31
2022/09/14 07:10:54;;;;;;;15.57;13.97;;;;;;;23.93;57.65;98772.16;4140739;28;20263;-31
2022/09/14 07:12:59;;;;;;;16.43;13.60;;;;;;;24.53;57.55;98737.06;4137657;28;20253;-32
2022/09/14 07:15:00;;;;;;;18.43;14.73;;;;;;;25.84;53.83;98718.69;4124580;28;20321;-31
2022/09/14 07:17:02;;;;;;;16.93;14.03;;;;;;;25.82;54.15;98739.94;4125856;28;20719;-35
2022/09/14 07:19:12;;;;;;;17.47;14.60;;;;;;;26.12;53.21;98757.94;4122551;28;20320;-31
2022/09/14 07:21:17;;;;;;;18.97;15.63;;;;;;;26.32;53.03;98747.97;4128874;28;20300;-30
2022/09/14 07:23:20;;;;;;;21.57;15.33;;;;;;;26.52;51.79;98763.28;4127109;28;20589;-31
2022/09/14 07:25:21;;;;;;;17.77;14.60;;;;;;;27.05;52.09;98740.59;4128763;28;20648;-33
2022/09/14 07:27:23;;;;;;;17.33;14.77;;;;;;;26.36;52.99;98770.00;4128865;28;20257;-32
2022/09/14 07:29:25;;;;;;;19.03;16.17;;;;;;;27.14;51.37;98744.31;4126915;28;20312;-32
2022/09/14 07:31:26;;;;;;;19.30;15.10;;;;;;;27.29;51.07;98758.84;4127804;28;20258;-33
2022/09/14 07:33:28;;;;;;;19.70;14.83;;;;;;;27.32;51.17;98763.72;4128487;28;20236;-35
2022/09/14 07:35:31;;;;;;;16.37;14.67;;;;;;;26.75;52.56;98797.13;4127314;28;20237;-30
2022/09/14 07:37:33;;;;;;;16.83;14.67;;;;;;;26.57;53.67;98786.97;4128611;28;20257;-31
2022/09/14 07:39:35;;;;;;;18.47;15.93;;;;;;;26.65;53.02;98799.97;4130426;28;20257;-31
2022/09/14 07:41:37;;;;;;;18.40;14.60;;;;;;;25.88;54.21;98812.34;4130109;28;20336;-32
2022/09/14 07:43:38;;;;;;;18.80;15.23;;;;;;;26.53;53.69;98787.53;4131551;28;20294;-31
2022/09/14 07:45:40;;;;;;;17.25;14.32;;;;;;;25.95;54.70;98809.31;4132920;28;20755;-32
2022/09/14 07:47:42;;;;;;;16.70;13.70;;;;;;;26.53;53.45;98793.00;4132810;28;20249;-33
2022/09/14 07:49:44;;;;;;;15.32;13.73;;;;;;;26.72;53.33;98794.97;4132231;28;20325;-35
2022/09/14 07:51:45;;;;;;;18.93;14.43;;;;;;;27.00;52.70;98796.03;4128696;28;20267;-35
2022/09/14 07:53:47;;;;;;;18.88;13.60;;;;;;;26.78;53.07;98812.13;4130797;28;20267;-30
2022/09/14 07:55:48;;;;;;;19.40;13.63;;;;;;;26.64;54.14;98817.41;4129284;28;20249;-32
2022/09/14 07:57:50;;;;;;;16.33;13.60;;;;;;;27.04;52.84;98799.81;4127899;28;20262;-37
2022/09/14 07:59:57;;;;;;;14.98;11.90;;;;;;;27.14;52.95;98798.06;4130799;28;20229;-31
2022/09/14 08:01:59;;;;;;;12.43;10.75;;;;;;;26.85;53.63;98810.66;4128536;28;20229;-31
2022/09/14 08:04:01;;;;;;;12.40;10.73;;;;;;;26.70;54.34;98808.91;4132068;28;20450;-32
2022/09/14 08:06:08;;;;;;;13.50;10.57;;;;;;;26.87;54.14;98802.19;4131786;28;20614;-33
2022/09/14 08:08:10;;;;;;;12.37;10.63;;;;;;;26.66;54.81;98812.50;4127130;28;20302;-31
2022/09/14 08:10:12;;;;;;;15.73;11.20;;;;;;;26.61;54.87;98818.81;4135635;28;20233;-31
2022/09/14 08:12:15;;;;;;;13.70;9.35;;;;;;;26.36;55.36;98819.06;4126377;28;20246;-32
2022/09/14 08:14:16;;;;;;;14.80;11.18;;;;;;;26.40;55.51;98820.91;4129823;28;20678;-32
2022/09/14 08:16:19;;;;;;;14.23;10.63;;;;;;;26.85;54.31;98807.13;4133056;28;20691;-32
2022/09/14 08:18:21;;;;;;;12.93;9.90;;;;;;;27.04;54.43;98815.34;4127858;28;20228;-35
2022/09/14 08:20:22;;;;;;;14.80;10.25;;;;;;;26.33;56.04;98842.22;4128849;28;20254;-31
2022/09/14 08:22:24;;;;;;;13.05;10.55;;;;;;;26.62;55.39;98822.34;4128509;28;20304;-33
2022/09/14 08:24:26;;;;;;;13.35;10.27;;;;;;;25.51;58.59;98848.19;4125745;28;20265;-34
2022/09/14 08:26:28;;;;;;;13.82;9.95;;;;;;;25.61;58.63;98812.78;4124674;28;20734;-32
2022/09/14 08:28:30;;;;;;;13.85;9.63;;;;;;;26.97;54.90;98784.88;4124112;28;20237;-33
2022/09/14 08:30:32;;;;;;;11.20;9.30;;;;;;;26.66;55.92;98802.41;4126522;28;20265;-31
2022/09/14 08:32:34;;;;;;;15.52;10.02;;;;;;;26.97;55.36;98798.53;4127699;28;20229;-33
2022/09/14 08:34:35;;;;;;;12.10;9.80;;;;;;;26.93;54.88;98813.88;4125980;28;20264;-32
2022/09/14 08:36:40;;;;;;;13.65;10.18;;;;;;;26.63;56.14;98819.34;4128243;28;20295;-32
2022/09/14 08:38:41;;;;;;;13.93;10.15;;;;;;;25.87;57.87;98828.94;4126730;28;20325;-33
2022/09/14 08:40:44;;;;;;;12.73;10.07;;;;;;;25.66;58.27;98829.09;4126126;28;20321;-32
2022/09/14 08:42:47;;;;;;;13.55;10.45;;;;;;;26.24;57.03;98808.53;4125653;28;20295;-32
2022/09/14 08:44:55;;;;;;;14.88;10.30;;;;;;;26.36;56.86;98816.31;4129224;28;20260;-32
2022/09/14 08:47:08;;;;;;;14.63;11.30;;;;;;;25.75;58.71;98832.81;4137996;28;20253;-33
2022/09/14 08:49:18;;;;;;;18.48;10.82;;;;;;;24.98;60.68;98822.28;4129963;28;20237;-31
2022/09/14 08:51:20;;;;;;;16.65;11.57;;;;;;;24.48;61.47;98857.44;4130175;28;20329;-31
2022/09/14 08:53:24;;;;;;;19.90;11.18;;;;;;;24.64;62.00;98849.28;4127200;28;20329;-31
2022/09/14 08:55:36;;;;;;;18.50;10.73;;;;;;;24.61;62.44;98831.59;4132133;28;20265;-31
2022/09/14 08:57:44;;;;;;;15.20;10.60;;;;;;;26.24;58.38;98800.34;4127429;28;20325;-33
2022/09/14 09:00:09;;;;;;;12.73;11.43;;;;;;;27.60;55.24;98790.06;4129904;28;20754;-31
2022/09/14 09:02:41;;;;;;;15.32;11.55;;;;;;;27.44;55.71;98826.88;4126731;28;20750;-34
2022/09/14 09:04:55;;;;;;;15.73;11.23;;;;;;;26.97;57.81;98832.06;4131205;28;20264;-31
2022/09/14 09:07:31;;;;;;;12.65;10.75;;;;;;;27.78;55.62;98812.22;4119433;28;20253;-33
2022/09/14 09:09:48;;;;;;;15.05;11.73;;;;;;;27.84;56.12;98807.47;4117329;28;20265;-31
2022/09/14 09:11:52;;;;;;;14.35;10.43;;;;;;;26.86;57.95;98825.91;4128659;28;20497;-31
2022/09/14 09:13:55;;;;;;;15.70;10.48;;;;;;;27.79;55.52;98805.66;4129954;28;20729;-31
2022/09/14 09:16:00;;;;;;;13.30;8.95;;;;;;;25.85;59.59;98858.38;4132316;28;20257;-33
2022/09/14 09:18:11;;;;;;;10.25;7.95;;;;;;;26.61;57.47;98827.00;4126475;28;20233;-34
2022/09/14 09:20:23;;;;;;;9.55;8.13;;;;;;;26.92;56.81;98826.66;4133280;28;20736;-32
2022/09/14 09:22:29;;;;;;;11.10;8.13;;;;;;;27.06;56.52;98813.16;4134192;28;20246;-32
2022/09/14 09:24:41;;;;;;;11.93;8.60;;;;;;;27.53;56.62;98827.81;4124114;28;20316;-32
2022/09/14 09:26:43;;;;;;;10.20;8.70;;;;;;;27.70;56.39;98829.25;4123653;28;20609;-32
2022/09/14 09:28:51;;;;;;;13.68;8.82;;;;;;;27.65;56.32;98838.34;4127474;28;20268;-32
2022/09/14 09:31:06;;;;;;;12.48;8.10;;;;;;;27.68;56.26;98812.38;4124452;28;20325;-32
2022/09/14 09:33:20;;;;;;;11.65;8.13;;;;;;;28.08;54.67;98807.38;4125630;28;20291;-32
2022/09/14 09:35:23;;;;;;;9.02;7.50;;;;;;;26.94;57.50;98843.53;4125298;28;20284;-31
2022/09/14 09:37:25;;;;;;;9.20;7.28;;;;;;;28.10;55.57;98786.84;4125529;28;20651;-32
2022/09/14 09:39:29;;;;;;;9.98;7.20;;;;;;;27.86;56.27;98803.34;4128849;28;20730;-33
2022/09/14 09:41:49;;;;;;;12.57;7.20;;;;;;;27.43;57.59;98815.16;4127612;28;20340;-32
2022/09/14 09:43:59;;;;;;;8.82;6.40;;;;;;;28.52;55.00;98771.34;4124115;28;20258;-31